createdAt,value
2018-12-06T00:02:12.804Z,2.40
2018-12-06T00:04:40.284Z,2.50
2018-12-06T00:07:07.770Z,2.60
2018-12-06T00:09:35.253Z,2.60
2018-12-06T00:12:02.737Z,2.70
2018-12-06T00:14:30.252Z,2.70
2018-12-06T00:16:57.733Z,2.70
2018-12-06T00:19:25.212Z,2.60
2018-12-06T00:21:52.692Z,2.70
2018-12-06T00:24:20.258Z,2.60
2018-12-06T00:26:47.808Z,2.70
2018-12-06T00:29:15.294Z,2.70
2018-12-06T00:31:42.846Z,2.70
2018-12-06T00:34:10.396Z,2.60
2018-12-06T00:36:37.877Z,2.60
2018-12-06T00:39:05.909Z,2.60
2018-12-06T00:41:33.424Z,2.50
2018-12-06T00:44:00.907Z,2.50
2018-12-06T00:46:28.388Z,2.40
2018-12-06T00:48:55.886Z,2.40
2018-12-06T00:51:23.374Z,2.30
2018-12-06T00:53:50.853Z,2.30
2018-12-06T00:56:18.333Z,2.10
2018-12-06T00:58:45.814Z,2.10
2018-12-06T01:01:13.373Z,2.00
2018-12-06T01:03:40.861Z,2.00
2018-12-06T01:06:08.432Z,2.10
2018-12-06T01:08:35.920Z,2.00
2018-12-06T01:11:03.402Z,2.10
2018-12-06T01:13:31.170Z,2.20
2018-12-06T01:15:58.756Z,2.20
2018-12-06T01:18:26.242Z,2.20
2018-12-06T01:20:53.721Z,2.20
2018-12-06T01:23:21.205Z,2.20
2018-12-06T01:25:48.686Z,2.20
2018-12-06T01:28:16.166Z,2.20
2018-12-06T01:30:43.650Z,2.20
2018-12-06T01:33:11.379Z,2.10
2018-12-06T01:35:38.868Z,2.10
2018-12-06T01:38:06.344Z,2.00
2018-12-06T01:40:33.833Z,2.00
2018-12-06T01:43:01.313Z,2.10
2018-12-06T01:45:28.794Z,2.10
2018-12-06T01:47:56.275Z,2.10
2018-12-06T01:50:23.754Z,2.10
2018-12-06T01:52:51.233Z,2.20
2018-12-06T01:55:18.711Z,2.20
2018-12-06T01:57:46.196Z,2.20
2018-12-06T02:00:14.613Z,2.10
2018-12-06T02:02:42.092Z,2.20
2018-12-06T02:05:09.574Z,2.20
2018-12-06T02:07:37.052Z,2.10
2018-12-06T02:10:05.993Z,2.10
2018-12-06T02:12:33.556Z,2.10
2018-12-06T02:15:01.056Z,2.10
2018-12-06T02:17:28.529Z,2.10
2018-12-06T02:19:56.012Z,2.10
2018-12-06T02:22:23.570Z,2.00
2018-12-06T02:24:51.056Z,2.00
2018-12-06T02:27:18.533Z,2.00
2018-12-06T02:29:51.593Z,1.90
2018-12-06T02:32:19.074Z,2.00
2018-12-06T02:34:46.554Z,2.00
2018-12-06T02:37:14.037Z,2.00
2018-12-06T02:39:41.521Z,2.00
2018-12-06T02:42:09.008Z,1.90
2018-12-06T02:44:36.485Z,1.90
2018-12-06T02:47:03.966Z,1.70
2018-12-06T02:49:31.447Z,1.70
2018-12-06T02:51:58.917Z,1.70
2018-12-06T02:54:26.393Z,1.70
2018-12-06T02:56:53.881Z,1.70
2018-12-06T02:59:21.353Z,1.70
2018-12-06T03:01:48.841Z,1.70
2018-12-06T03:04:16.317Z,1.80
2018-12-06T03:06:43.800Z,1.80
2018-12-06T03:09:11.277Z,1.80
2018-12-06T03:11:38.750Z,1.90
2018-12-06T03:14:06.249Z,2.00
2018-12-06T03:16:33.730Z,2.10
2018-12-06T03:19:01.214Z,2.10
2018-12-06T03:21:28.706Z,2.20
2018-12-06T03:23:56.289Z,2.20
2018-12-06T03:26:23.757Z,2.30
2018-12-06T03:28:51.237Z,2.30
2018-12-06T03:31:18.711Z,2.30
2018-12-06T03:33:46.181Z,2.30
2018-12-06T03:36:13.662Z,2.30
2018-12-06T03:38:41.145Z,2.30
2018-12-06T03:41:08.632Z,2.30
2018-12-06T03:43:36.125Z,2.30
2018-12-06T03:46:03.790Z,2.30
2018-12-06T03:48:31.269Z,2.30
2018-12-06T03:50:58.741Z,2.30
2018-12-06T03:53:26.222Z,2.30
2018-12-06T03:55:53.697Z,2.20
2018-12-06T03:58:21.183Z,2.20
2018-12-06T04:00:48.742Z,2.20
2018-12-06T04:03:16.258Z,2.20
2018-12-06T04:05:43.737Z,2.10
2018-12-06T04:08:11.222Z,2.10
2018-12-06T04:10:38.701Z,2.10
2018-12-06T04:13:11.565Z,2.00
2018-12-06T04:15:39.132Z,2.00
2018-12-06T04:18:06.752Z,2.00
2018-12-06T04:20:34.231Z,2.10
2018-12-06T04:23:01.708Z,2.00
2018-12-06T04:25:29.189Z,2.10
2018-12-06T04:27:56.672Z,2.10
2018-12-06T04:30:24.149Z,2.20
2018-12-06T04:32:51.625Z,2.20
2018-12-06T04:35:19.109Z,2.20
2018-12-06T04:37:46.590Z,2.20
2018-12-06T04:40:14.061Z,2.10
2018-12-06T04:42:41.542Z,2.20
2018-12-06T04:45:10.602Z,2.20
2018-12-06T04:47:38.260Z,2.20
2018-12-06T04:50:05.932Z,2.30
2018-12-06T04:52:33.417Z,2.30
2018-12-06T04:55:00.901Z,2.20
2018-12-06T04:57:28.382Z,2.20
2018-12-06T04:59:55.864Z,2.20
2018-12-06T05:02:23.349Z,2.30
2018-12-06T05:04:50.831Z,2.30
2018-12-06T05:07:18.313Z,2.20
2018-12-06T05:09:45.797Z,2.20
2018-12-06T05:12:13.280Z,2.10
2018-12-06T05:14:40.756Z,2.10
2018-12-06T05:17:08.243Z,2.10
2018-12-06T05:19:35.721Z,2.00
2018-12-06T05:22:03.205Z,2.00
2018-12-06T05:24:30.729Z,2.00
2018-12-06T05:26:58.214Z,2.00
2018-12-06T05:29:25.688Z,2.00
2018-12-06T05:31:53.169Z,2.00
2018-12-06T05:34:20.649Z,2.00
2018-12-06T05:36:48.129Z,2.00
2018-12-06T05:39:15.612Z,2.00
2018-12-06T05:41:44.916Z,1.90
2018-12-06T05:44:12.393Z,1.90
2018-12-06T05:46:39.878Z,1.90
2018-12-06T05:49:07.365Z,1.90
2018-12-06T05:51:34.847Z,1.90
2018-12-06T05:54:02.332Z,1.90
2018-12-06T05:56:29.812Z,2.00
2018-12-06T05:58:57.289Z,2.00
2018-12-06T06:01:24.772Z,2.10
2018-12-06T06:03:52.261Z,2.10
2018-12-06T06:06:19.737Z,2.10
2018-12-06T06:08:47.220Z,2.10
2018-12-06T06:11:14.807Z,2.10
2018-12-06T06:13:42.289Z,2.10
2018-12-06T06:16:09.774Z,2.20
2018-12-06T06:18:37.254Z,2.20
2018-12-06T06:21:04.737Z,2.20
2018-12-06T06:23:32.221Z,2.20
2018-12-06T06:25:59.705Z,2.20
2018-12-06T06:28:27.189Z,2.20
2018-12-06T06:30:54.721Z,2.10
2018-12-06T06:33:22.205Z,2.10
2018-12-06T06:35:49.685Z,2.10
2018-12-06T06:38:17.185Z,2.10
2018-12-06T06:40:44.764Z,2.10
2018-12-06T06:43:12.244Z,2.10
2018-12-06T06:45:39.725Z,2.00
2018-12-06T06:48:07.205Z,2.00
2018-12-06T06:50:34.685Z,2.00
2018-12-06T06:53:02.173Z,2.00
2018-12-06T06:55:29.653Z,2.00
2018-12-06T06:57:57.138Z,2.00
2018-12-06T07:00:24.620Z,2.00
2018-12-06T07:02:52.096Z,2.00
2018-12-06T07:05:19.593Z,2.00
2018-12-06T07:07:47.071Z,2.00
2018-12-06T07:10:14.557Z,2.00
2018-12-06T07:12:42.068Z,2.00
2018-12-06T07:15:09.834Z,2.00
2018-12-06T07:17:37.314Z,2.00
2018-12-06T07:20:05.144Z,2.10
2018-12-06T07:22:32.712Z,2.20
2018-12-06T07:25:00.195Z,2.30
2018-12-06T07:27:27.676Z,2.30
2018-12-06T07:29:55.161Z,2.30
2018-12-06T07:32:22.641Z,2.30
2018-12-06T07:34:50.121Z,2.40
2018-12-06T07:37:17.602Z,2.50
2018-12-06T07:39:45.157Z,2.50
2018-12-06T07:42:12.642Z,2.50
2018-12-06T07:44:40.134Z,2.50
2018-12-06T07:47:07.690Z,2.70
2018-12-06T07:49:35.169Z,2.70
2018-12-06T07:52:02.651Z,2.70
2018-12-06T07:54:30.177Z,2.80
2018-12-06T07:56:57.657Z,2.80
2018-12-06T07:59:25.141Z,2.80
2018-12-06T08:01:52.630Z,2.90
2018-12-06T08:04:20.108Z,2.90
2018-12-06T08:06:47.581Z,2.90
2018-12-06T08:09:15.065Z,3.00
2018-12-06T08:11:42.550Z,3.00
2018-12-06T08:14:10.026Z,3.10
2018-12-06T08:16:37.517Z,3.20
2018-12-06T08:19:05.001Z,3.20
2018-12-06T08:21:32.481Z,3.20
2018-12-06T08:23:59.957Z,3.20
2018-12-06T08:26:27.450Z,3.30
2018-12-06T08:28:55.006Z,3.20
2018-12-06T08:31:22.489Z,3.20
2018-12-06T08:33:49.965Z,3.20
2018-12-06T08:36:17.446Z,3.20
2018-12-06T08:38:44.921Z,3.30
2018-12-06T08:41:12.396Z,3.20
2018-12-06T08:43:39.887Z,3.30
2018-12-06T08:46:07.372Z,3.30
2018-12-06T08:48:34.852Z,3.30
2018-12-06T08:51:02.337Z,3.30
2018-12-06T08:53:29.813Z,3.30
2018-12-06T08:55:57.290Z,3.30
2018-12-06T08:58:24.769Z,3.40
2018-12-06T09:00:52.244Z,3.40
2018-12-06T09:03:19.716Z,3.50
2018-12-06T09:05:47.207Z,3.60
2018-12-06T09:08:14.688Z,3.70
2018-12-06T09:10:42.182Z,3.70
2018-12-06T09:13:09.662Z,3.80
2018-12-06T09:15:37.141Z,3.80
2018-12-06T09:18:04.626Z,3.90
2018-12-06T09:20:32.105Z,3.90
2018-12-06T09:22:59.585Z,3.90
2018-12-06T09:25:27.065Z,3.90
2018-12-06T09:27:54.540Z,4.00
2018-12-06T09:30:22.023Z,4.00
2018-12-06T09:32:49.505Z,4.00
2018-12-06T09:35:16.982Z,4.10
2018-12-06T09:37:44.457Z,4.10
2018-12-06T09:40:12.113Z,4.10
2018-12-06T09:42:39.594Z,4.20
2018-12-06T09:45:07.327Z,4.30
2018-12-06T09:47:34.813Z,4.30
2018-12-06T09:50:02.517Z,4.30
2018-12-06T09:52:30.066Z,4.40
2018-12-06T09:54:57.545Z,4.30
2018-12-06T09:57:25.029Z,4.50
2018-12-06T09:59:52.513Z,4.40
2018-12-06T10:02:19.993Z,4.40
2018-12-06T10:04:47.552Z,4.30
2018-12-06T10:07:15.037Z,4.30
2018-12-06T10:09:42.518Z,4.20
2018-12-06T10:12:10.077Z,4.20
2018-12-06T10:14:37.637Z,4.40
2018-12-06T10:17:05.130Z,4.30
2018-12-06T10:19:32.613Z,4.50
2018-12-06T10:22:00.092Z,4.60
2018-12-06T10:24:27.565Z,4.50
2018-12-06T10:26:55.056Z,4.50
2018-12-06T10:29:22.535Z,4.50
2018-12-06T10:31:50.008Z,4.50
2018-12-06T10:34:17.489Z,4.50
2018-12-06T10:36:44.964Z,4.50
2018-12-06T10:39:12.441Z,4.40
2018-12-06T10:41:39.918Z,4.40
2018-12-06T10:44:07.402Z,4.40
2018-12-06T10:46:34.873Z,4.40
2018-12-06T10:49:02.353Z,4.40
2018-12-06T10:51:42.643Z,4.30
2018-12-06T10:54:10.124Z,4.30
2018-12-06T10:56:37.672Z,4.30
2018-12-06T10:59:05.536Z,4.30
2018-12-06T11:01:38.666Z,4.30
2018-12-06T11:04:06.150Z,4.40
2018-12-06T11:06:33.633Z,4.40
2018-12-06T11:09:01.117Z,4.30
2018-12-06T11:11:28.597Z,4.30
2018-12-06T11:13:56.078Z,4.40
2018-12-06T11:16:23.552Z,4.50
2018-12-06T11:18:51.037Z,4.40
2018-12-06T11:21:51.784Z,4.50
2018-12-06T11:24:19.273Z,4.50
2018-12-06T11:26:46.765Z,4.50
2018-12-06T11:29:14.240Z,4.50
2018-12-06T11:31:41.728Z,4.40
2018-12-06T11:34:09.205Z,4.50
2018-12-06T11:36:36.768Z,4.50
2018-12-06T11:39:06.805Z,4.60
2018-12-06T11:41:34.285Z,4.60
2018-12-06T11:44:01.940Z,4.60
2018-12-06T11:46:29.416Z,4.70
2018-12-06T11:48:56.896Z,4.50
2018-12-06T11:51:24.377Z,4.70
2018-12-06T11:53:51.861Z,4.70
2018-12-06T11:56:19.341Z,4.70
2018-12-06T11:58:46.816Z,4.70
2018-12-06T12:01:14.373Z,4.60
2018-12-06T12:03:41.856Z,4.60
2018-12-06T12:06:09.341Z,4.50
2018-12-06T12:08:37.154Z,4.40
2018-12-06T12:11:04.634Z,4.40
2018-12-06T12:13:32.114Z,4.50
2018-12-06T12:15:59.588Z,4.50
2018-12-06T12:18:27.068Z,4.40
2018-12-06T12:20:54.555Z,4.40
2018-12-06T12:23:22.029Z,4.30
2018-12-06T12:25:49.513Z,4.30
2018-12-06T12:28:16.996Z,4.30
2018-12-06T12:30:44.478Z,4.30
2018-12-06T12:33:11.950Z,4.30
2018-12-06T12:35:39.433Z,4.30
2018-12-06T12:38:06.923Z,4.30
2018-12-06T12:40:34.405Z,4.40
2018-12-06T12:43:01.880Z,4.40
2018-12-06T12:45:29.358Z,4.40
2018-12-06T12:47:56.836Z,4.40
2018-12-06T12:50:24.321Z,4.40
2018-12-06T12:52:51.794Z,4.40
2018-12-06T12:55:19.281Z,4.40
2018-12-06T12:57:46.766Z,4.40
2018-12-06T13:00:14.324Z,4.40
2018-12-06T13:02:41.813Z,4.40
2018-12-06T13:05:09.501Z,4.40
2018-12-06T13:07:36.985Z,4.40
2018-12-06T13:10:05.149Z,4.50
2018-12-06T13:12:32.628Z,4.60
2018-12-06T13:15:00.113Z,4.70
2018-12-06T13:17:27.593Z,4.70
2018-12-06T13:19:55.079Z,4.80
2018-12-06T13:22:22.638Z,4.90
2018-12-06T13:24:50.128Z,4.90
2018-12-06T13:27:17.601Z,4.90
2018-12-06T13:29:45.082Z,4.80
2018-12-06T13:32:12.557Z,4.70
2018-12-06T13:34:40.041Z,4.60
2018-12-06T13:37:07.522Z,4.60
2018-12-06T13:39:34.997Z,4.60
2018-12-06T13:42:02.484Z,4.60
2018-12-06T13:44:29.962Z,4.60
2018-12-06T13:46:57.549Z,4.70
2018-12-06T13:49:25.025Z,4.60
2018-12-06T13:51:52.501Z,4.60
2018-12-06T13:54:26.770Z,4.50
2018-12-06T13:56:49.564Z,4.40
2018-12-06T13:59:17.041Z,4.40
2018-12-06T14:01:44.525Z,4.30
2018-12-06T14:04:12.003Z,4.30
2018-12-06T14:06:39.509Z,4.20
2018-12-06T14:09:07.070Z,4.10
2018-12-06T14:11:34.553Z,4.10
2018-12-06T14:14:02.037Z,4.00
2018-12-06T14:16:29.521Z,4.00
2018-12-06T14:18:57.020Z,4.00
2018-12-06T14:21:24.517Z,4.00
2018-12-06T14:23:52.001Z,3.90
2018-12-06T14:26:19.481Z,3.90
2018-12-06T14:28:46.965Z,3.80
2018-12-06T14:31:14.457Z,3.70
2018-12-06T14:33:41.941Z,3.60
2018-12-06T14:36:09.425Z,3.60
2018-12-06T14:38:37.061Z,3.70
2018-12-06T14:41:04.545Z,3.70
2018-12-06T14:43:32.021Z,3.70
2018-12-06T14:45:59.581Z,3.80
2018-12-06T14:48:27.237Z,3.80
2018-12-06T14:50:54.721Z,3.80
2018-12-06T14:53:22.201Z,3.80
2018-12-06T14:55:49.681Z,3.80
2018-12-06T14:58:17.172Z,3.80
2018-12-06T15:00:44.760Z,3.70
2018-12-06T15:03:12.317Z,3.60
2018-12-06T15:05:39.794Z,3.70
2018-12-06T15:08:07.273Z,3.70
2018-12-06T15:10:34.753Z,3.70
2018-12-06T15:13:02.233Z,3.70
2018-12-06T15:15:29.709Z,3.60
2018-12-06T15:17:57.191Z,3.60
2018-12-06T15:20:24.674Z,3.60
2018-12-06T15:22:52.161Z,3.60
2018-12-06T15:25:19.642Z,3.50
2018-12-06T15:27:47.296Z,3.50
2018-12-06T15:30:14.863Z,3.40
2018-12-06T15:32:42.374Z,3.40
2018-12-06T15:35:10.117Z,3.40
2018-12-06T15:37:37.663Z,3.30
2018-12-06T15:40:05.703Z,3.20
2018-12-06T15:42:33.181Z,3.10
2018-12-06T15:45:00.666Z,3.00
2018-12-06T15:47:28.150Z,2.90
2018-12-06T15:49:55.625Z,2.80
2018-12-06T15:52:23.105Z,2.60
2018-12-06T15:54:50.592Z,2.60
2018-12-06T15:57:18.061Z,2.50
2018-12-06T15:59:45.544Z,2.40
2018-12-06T16:02:13.025Z,2.30
2018-12-06T16:04:40.510Z,2.10
2018-12-06T16:07:08.066Z,2.00
2018-12-06T16:09:35.549Z,1.90
2018-12-06T16:12:03.105Z,2.00
2018-12-06T16:14:30.641Z,2.00
2018-12-06T16:16:58.130Z,2.00
2018-12-06T16:19:25.617Z,2.00
2018-12-06T16:21:53.102Z,2.00
2018-12-06T16:24:20.584Z,1.90
2018-12-06T16:26:48.138Z,1.90
2018-12-06T16:29:15.625Z,1.90
2018-12-06T16:31:43.173Z,1.80
2018-12-06T16:34:10.733Z,1.70
2018-12-06T16:36:38.214Z,1.50
2018-12-06T16:39:06.789Z,1.50
2018-12-06T16:41:34.279Z,1.40
2018-12-06T16:44:01.946Z,1.40
2018-12-06T16:46:29.430Z,1.40
2018-12-06T16:48:56.974Z,1.40
2018-12-06T16:51:24.474Z,1.50
2018-12-06T16:53:51.973Z,1.40
2018-12-06T16:56:19.700Z,1.30
2018-12-06T16:58:47.182Z,1.30
2018-12-06T17:01:14.665Z,1.20
2018-12-06T17:03:42.151Z,1.30
2018-12-06T17:06:09.628Z,1.30
2018-12-06T17:08:37.114Z,1.30
2018-12-06T17:11:04.878Z,1.40
2018-12-06T17:13:32.366Z,1.40
2018-12-06T17:15:59.857Z,1.40
2018-12-06T17:18:27.344Z,1.50
2018-12-06T17:20:54.828Z,1.50
2018-12-06T17:23:22.317Z,1.60
2018-12-06T17:25:49.797Z,1.60
2018-12-06T17:28:17.277Z,1.60
2018-12-06T17:30:44.758Z,1.70
2018-12-06T17:33:12.241Z,1.80
2018-12-06T17:35:39.734Z,1.80
2018-12-06T17:38:07.218Z,1.90
2018-12-06T17:40:34.706Z,1.90
2018-12-06T17:43:02.187Z,1.90
2018-12-06T17:45:29.671Z,1.80
2018-12-06T17:47:57.153Z,1.70
2018-12-06T17:50:24.628Z,1.60
2018-12-06T17:52:52.186Z,1.60
2018-12-06T17:55:19.665Z,1.50
2018-12-06T17:57:47.144Z,1.50
2018-12-06T18:00:14.641Z,1.40
2018-12-06T18:02:42.205Z,1.30
2018-12-06T18:05:09.769Z,1.20
2018-12-06T18:07:37.248Z,1.20
2018-12-06T18:10:05.866Z,1.20
2018-12-06T18:12:33.345Z,1.20
2018-12-06T18:15:00.942Z,1.10
2018-12-06T18:17:28.422Z,1.10
2018-12-06T18:19:55.900Z,1.00
2018-12-06T18:22:23.393Z,0.90
2018-12-06T18:24:50.876Z,0.80
2018-12-06T18:27:18.357Z,0.60
2018-12-06T18:29:45.840Z,0.70
2018-12-06T18:32:13.326Z,0.70
2018-12-06T18:34:40.877Z,0.70
2018-12-06T18:37:08.369Z,0.60
2018-12-06T18:39:35.851Z,0.60
2018-12-06T18:44:56.321Z,0.70
2018-12-06T18:47:23.797Z,0.70
2018-12-06T18:49:51.278Z,0.70
2018-12-06T18:52:18.762Z,0.80
2018-12-06T18:54:46.242Z,0.70
2018-12-06T18:57:13.729Z,0.70
2018-12-06T18:59:41.222Z,0.60
2018-12-06T19:02:08.709Z,0.50
2018-12-06T19:04:36.189Z,0.40
2018-12-06T19:07:03.678Z,0.40
2018-12-06T19:09:31.281Z,0.40
2018-12-06T19:11:58.773Z,0.30
2018-12-06T19:14:26.249Z,0.40
2018-12-06T19:16:53.729Z,0.40
2018-12-06T19:19:21.204Z,0.40
2018-12-06T19:21:48.692Z,0.50
2018-12-06T19:24:16.177Z,0.50
2018-12-06T19:26:43.660Z,0.50
2018-12-06T19:29:11.144Z,0.40
2018-12-06T19:31:38.746Z,0.40
2018-12-06T19:34:06.226Z,0.30
2018-12-06T19:36:33.709Z,0.10
2018-12-06T19:39:01.202Z,0.00
2018-12-06T19:41:28.687Z,0.00
2018-12-06T19:43:56.170Z,0.00
2018-12-06T19:46:23.796Z,0.10
2018-12-06T19:48:51.338Z,0.10
2018-12-06T19:51:19.034Z,0.10
2018-12-06T19:53:46.775Z,0.20
2018-12-06T19:56:14.262Z,0.20
2018-12-06T19:58:41.817Z,0.20
2018-12-06T20:01:09.307Z,0.30
2018-12-06T20:03:36.796Z,0.30
2018-12-06T20:06:04.315Z,0.20
2018-12-06T20:08:31.793Z,0.20
2018-12-06T20:10:59.277Z,0.20
2018-12-06T20:13:26.764Z,0.20
2018-12-06T20:15:54.262Z,0.10
2018-12-06T20:18:21.752Z,0.10
2018-12-06T20:20:49.234Z,0.10
2018-12-06T20:23:16.721Z,0.00
2018-12-06T20:25:44.296Z,-0.20
2018-12-06T20:28:11.785Z,-0.30
2018-12-06T20:30:39.320Z,-0.30
2018-12-06T20:33:06.900Z,-0.30
2018-12-06T20:35:34.389Z,-0.40
2018-12-06T20:38:01.873Z,-0.30
2018-12-06T20:40:29.370Z,-0.30
2018-12-06T20:42:56.921Z,-0.20
2018-12-06T20:45:24.405Z,-0.20
2018-12-06T20:47:51.895Z,-0.20
2018-12-06T20:50:19.385Z,-0.10
2018-12-06T20:52:46.872Z,-0.10
2018-12-06T20:55:14.364Z,0.00
2018-12-06T20:57:41.926Z,-0.10
2018-12-06T21:00:09.869Z,-0.20
2018-12-06T21:02:37.353Z,-0.40
2018-12-06T21:05:05.005Z,-0.30
2018-12-06T21:07:32.502Z,-0.30
2018-12-06T21:09:59.985Z,-0.30
2018-12-06T21:12:27.470Z,-0.10
2018-12-06T21:14:54.957Z,-0.10
2018-12-06T21:17:22.447Z,0.00
2018-12-06T21:19:50.018Z,-0.10
2018-12-06T21:22:17.509Z,-0.10
2018-12-06T21:24:45.033Z,-0.20
2018-12-06T21:27:12.520Z,-0.20
2018-12-06T21:29:40.004Z,-0.20
2018-12-06T21:32:07.493Z,-0.20
2018-12-06T21:34:34.977Z,-0.40
2018-12-06T21:37:02.468Z,-0.30
2018-12-06T21:39:29.953Z,-0.30
2018-12-06T21:41:57.444Z,-0.30
2018-12-06T21:44:24.929Z,-0.30
2018-12-06T21:46:52.425Z,-0.30
2018-12-06T21:49:19.919Z,-0.30
2018-12-06T21:51:47.413Z,-0.30
2018-12-06T21:54:14.901Z,-0.20
2018-12-06T21:56:42.389Z,-0.20
2018-12-06T21:59:09.877Z,-0.20
2018-12-06T22:01:37.372Z,-0.20
2018-12-06T22:04:04.865Z,-0.30
2018-12-06T22:06:32.374Z,-0.40
2018-12-06T22:08:59.866Z,-0.40
2018-12-06T22:11:27.353Z,-0.40
2018-12-06T22:13:54.837Z,-0.30
2018-12-06T22:16:22.573Z,-0.30
2018-12-06T22:18:50.787Z,-0.30
2018-12-06T22:21:18.290Z,-0.40
2018-12-06T22:23:45.777Z,-0.30
2018-12-06T22:26:13.361Z,-0.30
2018-12-06T22:28:40.875Z,-0.30
2018-12-06T22:31:08.359Z,-0.40
2018-12-06T22:33:35.845Z,-0.40
2018-12-06T22:36:03.412Z,-0.40
2018-12-06T22:38:34.065Z,-0.50
2018-12-06T22:41:00.438Z,-0.40
2018-12-06T22:43:27.926Z,-0.40
2018-12-06T22:45:55.862Z,-0.40
2018-12-06T22:48:23.926Z,-0.40
2018-12-06T22:50:51.416Z,-0.40
2018-12-06T22:53:18.904Z,-0.40
2018-12-06T22:55:46.403Z,-0.40
2018-12-06T22:58:13.893Z,-0.40
2018-12-06T23:00:44.544Z,-0.30
2018-12-06T23:03:12.037Z,-0.40
2018-12-06T23:05:39.581Z,-0.30
2018-12-06T23:08:07.068Z,-0.40
2018-12-06T23:10:34.553Z,-0.50
2018-12-06T23:13:02.040Z,-0.40
2018-12-06T23:15:29.524Z,-0.50
2018-12-06T23:17:57.008Z,-0.50
2018-12-06T23:20:24.516Z,-0.40
2018-12-06T23:22:51.993Z,-0.40
2018-12-06T23:25:19.494Z,-0.40
2018-12-06T23:27:46.974Z,-0.40
2018-12-06T23:30:14.461Z,-0.40
2018-12-06T23:32:41.945Z,-0.40
2018-12-06T23:35:09.428Z,-0.40
2018-12-06T23:37:36.913Z,-0.40
2018-12-06T23:40:05.755Z,-0.40
2018-12-06T23:42:33.324Z,-0.40
2018-12-06T23:45:00.930Z,-0.50
2018-12-06T23:47:28.410Z,-0.40
2018-12-06T23:49:55.888Z,-0.40
2018-12-06T23:52:23.374Z,-0.40
2018-12-06T23:54:51.051Z,-0.40
2018-12-06T23:57:18.530Z,-0.50
2018-12-06T23:59:46.013Z,-0.50
